Time;durP1;ratioP1;P1;durP2;ratioP2;P2;SDS_P1;SDS_P2;PMS_P1;PMS_P2;Temp;Humidity;BMP_temperature;BMP_pressure;BME280_temperature;BME280_humidity;BME280_pressure;Samples;Min_cycle;Max_cycle;Signal;HPM_P1;HPM_P2
2022/11/19 00:00:12;;;;;;;;;13.60;13.00;;;;;12.93;71.18;98418.16;4839925;29;8879;-79
2022/11/19 00:03:00;;;;;;;;;15.80;14.00;;;;;13.29;70.37;98401.41;4863170;29;8863;-77
2022/11/19 00:05:29;;;;;;;;;12.40;12.40;;;;;12.87;70.98;98400.00;4853339;29;8895;-77
2022/11/19 00:07:58;;;;;;;;;15.00;14.80;;;;;12.98;70.85;98403.16;4855199;29;8982;-77
2022/11/19 00:10:26;;;;;;;;;14.00;11.60;;;;;13.12;70.30;98399.28;4909650;29;8881;-79
2022/11/19 00:12:55;;;;;;;;;16.80;15.80;;;;;13.05;69.92;98409.09;4870328;29;8989;-80
2022/11/19 00:15:25;;;;;;;;;17.40;16.00;;;;;13.21;69.42;98410.38;4840893;29;8850;-77
2022/11/19 00:17:53;;;;;;;;;18.40;15.60;;;;;13.32;69.02;98414.44;4834074;29;8879;-76
2022/11/19 00:20:22;;;;;;;;;10.00;10.00;;;;;13.48;68.78;98414.84;4837887;29;8895;-77
2022/11/19 00:22:52;;;;;;;;;11.60;11.60;;;;;13.14;69.55;98415.84;4853697;29;8932;-76
2022/11/19 00:25:21;;;;;;;;;14.40;13.00;;;;;13.35;68.55;98420.47;4836641;29;8909;-76
2022/11/19 00:27:51;;;;;;;;;14.00;13.80;;;;;13.07;68.80;98428.22;4846709;29;8864;-76
2022/11/19 00:30:21;;;;;;;;;15.00;12.80;;;;;13.28;68.94;98431.97;4886591;29;8884;-77
2022/11/19 00:33:10;;;;;;;;;16.40;16.20;;;;;13.33;68.33;98424.88;4840187;29;8876;-78
2022/11/19 00:35:38;;;;;;;;;16.20;14.80;;;;;13.39;68.00;98435.16;4852722;29;8896;-78
2022/11/19 00:38:07;;;;;;;;;13.80;12.80;;;;;13.46;67.37;98446.34;4850373;29;8920;-77
2022/11/19 00:40:36;;;;;;;;;18.40;16.00;;;;;13.44;67.56;98433.28;4839034;29;9400;-77
2022/11/19 00:45:52;;;;;;;;;14.60;14.60;;;;;13.03;68.31;98444.94;4890462;29;8909;-77
2022/11/19 00:48:20;;;;;;;;;17.60;15.00;;;;;13.30;67.58;98452.88;4855232;29;8970;-77
2022/11/19 00:50:49;;;;;;;;;10.40;10.20;;;;;13.31;68.00;98465.97;4838323;29;8918;-78
2022/11/19 00:53:17;;;;;;;;;9.40;9.40;;;;;13.33;67.50;98469.41;4838286;29;8980;-77
2022/11/19 00:55:46;;;;;;;;;14.20;14.20;;;;;13.10;67.75;98470.03;4836145;29;8898;-77
2022/11/19 00:58:15;;;;;;;;;14.60;12.80;;;;;13.20;67.73;98471.47;4835027;29;8881;-78
2022/11/19 01:00:44;;;;;;;;;12.60;12.60;;;;;13.14;67.40;98474.28;4872247;29;8866;-80
2022/11/19 01:03:14;;;;;;;;;14.20;14.20;;;;;12.96;68.00;98474.78;4884797;29;9646;-78
2022/11/19 01:05:42;;;;;;;;;17.60;15.20;;;;;12.70;68.78;98480.72;4875771;29;8875;-76
2022/11/19 01:08:11;;;;;;;;;14.00;14.00;;;;;12.72;68.64;98481.53;4891297;29;8859;-78
2022/11/19 01:10:39;;;;;;;;;16.20;14.60;;;;;12.69;69.09;98490.31;4891439;29;8887;-78
2022/11/19 01:15:54;;;;;;;;;13.60;13.00;;;;;12.54;69.69;98499.41;4860175;29;8901;-78
2022/11/19 01:18:24;;;;;;;;;16.00;16.00;;;;;12.41;69.92;98503.25;4891581;29;8909;-78
2022/11/19 01:20:54;;;;;;;;;15.20;13.60;;;;;12.77;69.65;98504.03;4876336;29;8974;-77
2022/11/19 01:23:22;;;;;;;;;15.80;14.60;;;;;12.91;68.56;98510.66;4907515;29;8931;-78
2022/11/19 01:25:51;;;;;;;;;15.60;15.20;;;;;13.12;67.92;98517.97;4868069;29;8869;-79
2022/11/19 01:28:20;;;;;;;;;15.20;14.60;;;;;13.09;68.54;98528.50;4909632;29;8867;-78
2022/11/19 01:30:48;;;;;;;;;15.20;14.20;;;;;13.22;68.07;98536.88;4879451;29;9669;-76
2022/11/19 01:33:18;;;;;;;;;19.20;18.00;;;;;12.95;68.13;98539.34;4895056;29;9741;-77
2022/11/19 01:35:56;;;;;;;;;17.40;16.20;;;;;12.96;67.75;98548.91;4894652;29;8867;-77
2022/11/19 01:38:25;;;;;;;;;20.00;16.80;;;;;13.04;67.75;98561.78;4858895;29;8937;-78
2022/11/19 01:40:55;;;;;;;;;18.80;18.80;;;;;13.25;66.95;98558.59;4874175;29;8887;-78
2022/11/19 01:43:40;;;;;;;;;15.20;14.80;;;;;13.10;67.69;98545.94;4873251;29;8970;-77
2022/11/19 01:46:10;;;;;;;;;19.40;17.00;;;;;12.67;68.30;98541.81;4873453;29;8939;-78
2022/11/19 01:48:44;;;;;;;;;16.20;15.60;;;;;13.18;67.69;98543.09;4859183;29;8879;-77
2022/11/19 01:51:19;;;;;;;;;16.40;14.60;;;;;13.08;67.69;98550.34;4912328;29;8877;-77
2022/11/19 01:53:50;;;;;;;;;17.00;16.00;;;;;13.26;67.43;98549.84;4912725;29;8911;-79
2022/11/19 01:56:22;;;;;;;;;20.80;18.40;;;;;13.18;67.10;98557.06;4912556;29;8959;-78
2022/11/19 01:58:57;;;;;;;;;20.40;17.40;;;;;13.42;66.75;98557.28;4893361;29;8883;-79
2022/11/19 02:01:29;;;;;;;;;17.00;16.20;;;;;13.29;66.91;98559.38;4893754;29;8863;-78
2022/11/19 02:04:00;;;;;;;;;18.80;17.40;;;;;13.39;66.21;98563.47;4900158;29;8908;-77
2022/11/19 02:06:31;;;;;;;;;21.00;20.00;;;;;13.47;66.07;98555.41;4912587;29;8877;-76
2022/11/19 02:09:00;;;;;;;;;20.20;17.60;;;;;13.54;65.86;98563.97;4912627;29;8915;-78
2022/11/19 02:11:54;;;;;;;;;21.20;19.00;;;;;13.72;65.85;98560.78;4913449;29;8865;-77
2022/11/19 02:14:42;;;;;;;;;18.80;18.00;;;;;13.35;66.11;98563.63;4914030;29;8877;-76
2022/11/19 02:17:21;;;;;;;;;24.80;19.60;;;;;13.58;65.68;98557.72;4909131;29;8902;-77
2022/11/19 02:20:18;;;;;;;;;21.00;18.20;;;;;13.69;65.39;98567.91;4907057;29;8900;-77
2022/11/19 02:23:07;;;;;;;;;16.40;16.40;;;;;13.79;65.42;98569.34;4900054;29;8967;-77
2022/11/19 02:25:59;;;;;;;;;21.40;20.60;;;;;13.84;65.02;98578.78;4900164;29;8926;-76
2022/11/19 02:28:34;;;;;;;;;20.00;15.60;;;;;13.72;64.68;98594.84;4883284;29;8870;-78
2022/11/19 02:31:11;;;;;;;;;18.00;17.20;;;;;13.81;64.81;98604.22;4855861;29;8902;-75
2022/11/19 02:33:48;;;;;;;;;18.80;16.60;;;;;13.91;64.74;98597.78;4843702;29;8998;-79
2022/11/19 02:36:25;;;;;;;;;18.20;18.00;;;;;13.98;64.44;98603.72;4871607;29;8887;-77
2022/11/19 02:39:02;;;;;;;;;18.60;18.60;;;;;14.02;64.78;98594.88;4862797;29;8891;-78
2022/11/19 02:41:36;;;;;;;;;26.40;24.60;;;;;14.03;64.23;98600.06;4865508;29;8922;-77
2022/11/19 02:47:09;;;;;;;;;23.40;21.40;;;;;14.10;64.04;98599.88;4853110;29;8884;-76
2022/11/19 02:49:43;;;;;;;;;19.20;18.60;;;;;13.91;63.07;98605.66;4853812;29;8997;-77
2022/11/19 02:52:13;;;;;;;;;20.40;18.60;;;;;13.91;64.02;98615.28;4839526;29;8889;-77
2022/11/19 02:54:42;;;;;;;;;21.20;19.80;;;;;13.96;63.60;98619.50;4838569;29;8889;-75
2022/11/19 02:57:12;;;;;;;;;29.00;27.80;;;;;13.95;63.53;98628.28;4853897;29;8885;-77
2022/11/19 03:05:30;;;;;;;;;22.40;22.00;;;;;13.99;63.41;98623.81;4856561;29;9615;-77
2022/11/19 03:08:00;;;;;;;;;26.60;24.40;;;;;13.99;63.40;98621.19;4872525;29;8894;-76
2022/11/19 03:10:38;;;;;;;;;26.60;24.20;;;;;13.93;62.98;98637.06;4892949;29;8860;-76
2022/11/19 03:16:41;;;;;;;;;26.20;23.40;;;;;14.03;63.25;98628.91;4889099;29;8962;-77
2022/11/19 03:19:35;;;;;;;;;29.00;25.00;;;;;14.02;63.50;98632.41;4874571;29;8892;-78
2022/11/19 03:22:10;;;;;;;;;27.40;25.40;;;;;13.99;63.37;98637.78;4836192;29;8966;-79
2022/11/19 03:24:43;;;;;;;;;25.60;23.80;;;;;14.01;63.14;98641.19;4873575;29;8960;-80
2022/11/19 03:27:18;;;;;;;;;25.60;20.60;;;;;14.02;63.23;98644.66;4840970;29;9001;-78
2022/11/19 03:29:51;;;;;;;;;24.00;21.40;;;;;13.98;63.04;98646.53;4836679;29;8878;-76
2022/11/19 03:32:24;;;;;;;;;21.00;21.00;;;;;13.90;62.84;98642.41;4845203;29;8940;-75
2022/11/19 03:34:59;;;;;;;;;21.80;19.80;;;;;13.96;63.30;98650.09;4855370;29;9053;-75
2022/11/19 03:37:33;;;;;;;;;22.20;21.40;;;;;13.93;63.03;98651.06;4839407;29;9013;-76
2022/11/19 03:40:04;;;;;;;;;22.20;20.20;;;;;13.87;62.92;98655.59;4854929;29;8910;-77
2022/11/19 03:42:35;;;;;;;;;20.40;20.40;;;;;13.72;62.63;98649.03;4822492;29;8884;-76
2022/11/19 03:45:11;;;;;;;;;14.20;14.20;;;;;13.79;62.86;98647.97;4816903;29;8900;-77
2022/11/19 03:47:43;;;;;;;;;20.00;20.00;;;;;13.75;62.71;98646.34;4814987;29;8888;-79
2022/11/19 03:50:23;;;;;;;;;21.60;20.40;;;;;13.81;63.30;98648.78;4817793;29;8902;-78
2022/11/19 03:52:52;;;;;;;;;21.00;18.60;;;;;13.77;62.85;98655.84;4853901;29;8986;-79
2022/11/19 03:55:31;;;;;;;;;18.20;18.20;;;;;13.84;62.87;98654.78;4854662;29;8876;-76
2022/11/19 03:58:03;;;;;;;;;20.20;19.00;;;;;13.75;62.38;98654.19;4856562;29;8867;-78
2022/11/19 04:00:31;;;;;;;;;21.80;21.20;;;;;13.74;62.34;98647.22;4840716;29;8974;-77
2022/11/19 04:03:00;;;;;;;;;16.20;16.20;;;;;13.69;62.78;98643.88;4856929;29;8959;-77
2022/11/19 04:05:30;;;;;;;;;29.40;23.40;;;;;13.73;62.95;98646.38;4864765;29;8883;-76
2022/11/19 04:07:59;;;;;;;;;23.40;22.20;;;;;13.75;62.48;98641.94;4872071;29;8906;-77
2022/11/19 04:10:28;;;;;;;;;16.00;15.20;;;;;13.76;62.84;98651.53;4856402;29;8882;-77
2022/11/19 04:12:57;;;;;;;;;23.40;21.00;;;;;13.78;62.75;98649.72;4860094;29;8934;-77
2022/11/19 04:15:25;;;;;;;;;22.80;22.60;;;;;13.83;62.69;98660.06;4857844;29;8890;-77
2022/11/19 04:17:54;;;;;;;;;21.60;21.60;;;;;13.87;62.54;98663.47;4856914;29;8905;-75
2022/11/19 04:20:22;;;;;;;;;25.00;21.40;;;;;13.88;62.17;98666.03;4863414;29;8883;-77
2022/11/19 04:22:53;;;;;;;;;17.80;15.40;;;;;13.89;62.23;98669.53;4842485;29;8882;-77
2022/11/19 04:25:21;;;;;;;;;22.40;20.60;;;;;13.90;62.89;98679.13;4853402;29;8886;-78
2022/11/19 04:27:52;;;;;;;;;25.00;23.00;;;;;13.90;62.33;98679.97;4870171;29;8905;-76
2022/11/19 04:30:20;;;;;;;;;52.00;42.50;;;;;13.90;62.37;98685.22;4856592;29;8918;-76
2022/11/19 04:32:49;;;;;;;;;45.50;39.25;;;;;13.90;62.42;98687.81;4869951;29;8914;-77
2022/11/19 04:35:20;;;;;;;;;26.60;25.80;;;;;13.91;62.41;98689.53;4854958;29;8895;-78
2022/11/19 04:37:49;;;;;;;;;27.60;26.20;;;;;13.88;62.10;98697.50;4855199;29;8930;-76
2022/11/19 04:40:19;;;;;;;;;26.00;23.00;;;;;13.80;61.77;98696.88;4854613;29;8907;-77
2022/11/19 04:42:47;;;;;;;;;25.40;22.20;;;;;13.48;62.58;98690.72;4837919;29;9633;-75
2022/11/19 04:45:16;;;;;;;;;41.20;36.40;;;;;13.50;61.89;98688.91;4835868;29;8915;-77
2022/11/19 04:47:45;;;;;;;;;23.80;22.60;;;;;13.35;62.17;98690.16;4851892;29;9658;-77
2022/11/19 04:50:13;;;;;;;;;24.40;22.60;;;;;13.39;62.52;98686.56;4851590;29;8882;-78
2022/11/19 04:52:42;;;;;;;;;26.00;24.20;;;;;13.38;62.62;98689.22;4852151;29;8891;-78
2022/11/19 04:55:11;;;;;;;;;25.00;23.80;;;;;13.38;62.77;98695.34;4855135;29;9611;-77
2022/11/19 04:57:41;;;;;;;;;30.80;29.00;;;;;13.34;62.29;98698.06;4856694;29;8974;-77
2022/11/19 05:00:10;;;;;;;;;71.75;57.00;;;;;13.34;62.45;98701.53;4858731;29;8879;-76
2022/11/19 05:02:39;;;;;;;;;28.40;27.00;;;;;13.18;62.67;98702.78;4873574;29;8906;-78
2022/11/19 05:05:08;;;;;;;;;26.20;25.00;;;;;12.97;63.03;98717.25;4870541;29;8896;-77
2022/11/19 05:07:37;;;;;;;;;24.00;22.40;;;;;13.04;63.16;98721.44;4858205;29;8906;-75
2022/11/19 05:10:06;;;;;;;;;21.80;21.20;;;;;13.00;63.31;98714.56;4856165;29;9630;-76
2022/11/19 05:12:35;;;;;;;;;23.40;23.00;;;;;13.16;63.39;98721.16;4839255;29;9662;-77
2022/11/19 05:15:06;;;;;;;;;53.50;43.25;;;;;13.33;63.48;98717.31;4889925;29;8981;-76
2022/11/19 05:17:35;;;;;;;;;52.25;42.25;;;;;13.47;63.60;98730.03;4875471;29;8867;-77
2022/11/19 05:20:03;;;;;;;;;46.00;36.50;;;;;13.56;63.20;98748.13;4890991;29;8970;-78
2022/11/19 05:22:32;;;;;;;;;50.25;42.25;;;;;13.68;62.86;98749.56;4875385;29;8883;-77
2022/11/19 05:25:01;;;;;;;;;25.80;25.20;;;;;13.75;62.76;98749.38;4874967;29;8910;-76
2022/11/19 05:27:30;;;;;;;;;27.60;26.40;;;;;13.77;61.97;98744.94;4875128;29;8914;-77
2022/11/19 05:29:59;;;;;;;;;16.80;16.40;;;;;13.86;62.39;98745.63;4874478;29;8863;-77
2022/11/19 05:32:29;;;;;;;;;28.00;28.00;;;;;13.78;61.41;98745.81;4877602;29;9657;-77
2022/11/19 05:34:58;;;;;;;;;31.40;31.20;;;;;13.83;61.93;98743.94;4855666;29;8873;-76
2022/11/19 05:37:26;;;;;;;;;28.80;27.40;;;;;13.90;61.82;98745.50;4870999;29;9008;-78
2022/11/19 05:39:55;;;;;;;;;34.40;29.80;;;;;13.89;61.00;98754.25;4871110;29;8869;-77
2022/11/19 05:42:24;;;;;;;;;29.00;26.20;;;;;13.70;60.89;98751.25;4870970;29;8885;-76
2022/11/19 05:44:52;;;;;;;;;32.60;28.80;;;;;13.73;61.74;98759.03;4885067;29;8887;-77
2022/11/19 05:47:21;;;;;;;;;33.00;30.00;;;;;13.77;61.39;98758.06;4855716;29;9638;-76
2022/11/19 05:49:51;;;;;;;;;30.80;28.00;;;;;13.86;61.63;98758.72;4869648;29;8871;-77
2022/11/19 05:52:19;;;;;;;;;23.60;22.40;;;;;13.87;61.13;98750.81;4854572;29;8875;-76
2022/11/19 05:54:48;;;;;;;;;29.20;29.00;;;;;13.92;61.19;98754.16;4857432;29;8965;-78
2022/11/19 05:57:17;;;;;;;;;36.40;35.00;;;;;13.98;61.65;98754.00;4865996;29;8866;-77
2022/11/19 05:59:45;;;;;;;;;34.50;33.75;;;;;14.01;61.34;98769.66;4871671;29;8923;-77
2022/11/19 06:02:14;;;;;;;;;33.80;31.00;;;;;14.08;60.88;98766.84;4859902;29;9045;-78
2022/11/19 06:04:42;;;;;;;;;31.80;29.60;;;;;14.14;61.30;98771.91;4823235;29;8879;-76
2022/11/19 06:07:12;;;;;;;;;33.60;32.80;;;;;14.18;61.47;98786.69;4869862;29;8886;-75
2022/11/19 06:09:41;;;;;;;;;34.80;34.00;;;;;14.23;61.17;98803.13;4871472;29;8917;-77
2022/11/19 06:12:10;;;;;;;;;31.60;30.80;;;;;14.26;61.23;98799.59;4854319;29;8875;-76
2022/11/19 06:14:38;;;;;;;;;31.80;31.60;;;;;14.30;60.82;98802.06;4872613;29;8891;-76
2022/11/19 06:17:07;;;;;;;;;44.75;38.25;;;;;14.30;60.57;98804.69;4857225;29;8883;-76
2022/11/19 06:19:35;;;;;;;;;40.75;37.75;;;;;14.34;60.41;98803.69;4858253;29;8902;-77
2022/11/19 06:22:04;;;;;;;;;46.50;38.25;;;;;14.38;60.85;98797.47;4817352;29;8854;-75
2022/11/19 06:24:34;;;;;;;;;36.00;32.25;;;;;14.34;59.63;98805.47;4818569;29;8886;-78
2022/11/19 06:27:03;;;;;;;;;44.00;34.75;;;;;14.26;59.91;98799.59;4818479;29;8889;-78
2022/11/19 06:29:32;;;;;;;;;37.80;34.60;;;;;14.10;59.22;98815.75;4818771;29;9045;-77
2022/11/19 06:32:01;;;;;;;;;28.20;27.40;;;;;14.14;59.22;98820.00;4789056;29;9624;-77
2022/11/19 06:34:29;;;;;;;;;37.40;34.40;;;;;14.17;59.86;98824.28;4809610;29;8902;-76
2022/11/19 06:36:58;;;;;;;;;32.40;32.40;;;;;14.21;60.49;98823.31;4820059;29;8866;-77
2022/11/19 06:39:27;;;;;;;;;36.25;35.25;;;;;14.29;60.42;98823.09;4810111;29;8905;-76
2022/11/19 06:42:34;;;;;;;;;37.75;35.00;;;;;14.35;60.33;98831.66;4853644;29;8865;-77
2022/11/19 06:44:46;;;;;;;;;47.25;40.50;;;;;14.44;60.33;98833.16;4840789;29;8865;-75
2022/11/19 06:47:15;;;;;;;;;38.00;36.75;;;;;14.51;60.13;98832.09;4841513;29;8913;-76
2022/11/19 06:49:43;;;;;;;;;43.25;38.25;;;;;14.60;59.73;98836.25;4854623;29;8929;-77
2022/11/19 06:52:12;;;;;;;;;43.75;38.25;;;;;14.67;59.85;98839.56;4913628;29;8863;-77
2022/11/19 06:54:40;;;;;;;;;46.50;38.00;;;;;14.72;59.81;98837.66;4911348;29;8974;-76
2022/11/19 06:57:12;;;;;;;;;47.75;41.00;;;;;14.78;60.22;98851.50;4893773;29;8894;-78
2022/11/19 06:59:41;;;;;;;;;52.50;44.00;;;;;14.82;60.62;98840.00;4892881;29;8991;-80
2022/11/19 07:02:11;;;;;;;;;50.25;41.00;;;;;14.87;60.13;98834.59;4893752;29;8874;-77
2022/11/19 07:04:39;;;;;;;;;50.25;42.50;;;;;14.92;60.19;98840.56;4862642;29;8875;-77
2022/11/19 07:07:09;;;;;;;;;64.75;52.00;;;;;14.97;59.59;98840.41;4880357;29;8879;-78
2022/11/19 07:09:38;;;;;;;;;56.25;45.50;;;;;15.05;59.61;98840.19;4896424;29;8873;-77
2022/11/19 07:12:08;;;;;;;;;52.00;40.25;;;;;15.08;59.31;98843.59;4876320;29;8871;-77
2022/11/19 07:14:38;;;;;;;;;35.75;33.25;;;;;15.12;59.46;98844.34;4892698;29;8871;-76
2022/11/19 07:17:06;;;;;;;;;70.50;57.00;;;;;15.16;59.31;98849.50;4891122;29;9568;-77
2022/11/19 07:19:35;;;;;;;;;69.00;55.75;;;;;15.20;59.36;98843.22;4875114;29;8915;-76
2022/11/19 07:22:04;;;;;;;;;77.00;60.50;;;;;15.26;58.97;98844.81;4905835;29;8941;-77
2022/11/19 07:24:32;;;;;;;;;66.00;53.00;;;;;15.32;58.85;98841.13;4837177;29;8917;-78
2022/11/19 07:27:01;;;;;;;;;60.75;48.25;;;;;15.33;58.99;98835.84;4842890;29;8860;-78
2022/11/19 07:29:29;;;;;;;;;52.00;43.75;;;;;15.35;58.50;98841.91;4839757;29;8924;-77
2022/11/19 07:32:00;;;;;;;;;55.00;43.50;;;;;15.42;58.87;98842.53;4840171;29;8885;-78
2022/11/19 07:34:28;;;;;;;;;39.75;34.25;;;;;15.44;58.38;98851.25;4842888;29;8901;-78
2022/11/19 07:36:57;;;;;;;;;45.00;39.25;;;;;15.44;58.41;98853.00;4842110;29;8965;-76
2022/11/19 07:39:26;;;;;;;;;52.25;43.75;;;;;15.44;58.22;98856.50;4840032;29;8888;-78
2022/11/19 07:44:41;;;;;;;;;34.50;33.25;;;;;15.42;57.45;98873.22;4844143;29;8877;-79
2022/11/19 07:47:12;;;;;;;;;35.40;33.20;;;;;15.38;57.95;98877.72;4906885;29;8860;-78
2022/11/19 07:49:40;;;;;;;;;43.50;37.00;;;;;15.43;58.07;98877.59;4904176;29;9005;-77
2022/11/19 07:52:09;;;;;;;;;40.80;36.60;;;;;15.49;57.67;98893.16;4880042;29;8885;-77
2022/11/19 07:54:37;;;;;;;;;46.50;40.00;;;;;15.52;57.54;98883.41;4899111;29;9767;-77
2022/11/19 07:57:07;;;;;;;;;38.50;33.50;;;;;15.59;58.08;98882.31;4861357;29;8859;-77
2022/11/19 07:59:36;;;;;;;;;46.00;38.50;;;;;15.61;57.39;98887.50;4894576;29;8875;-77
2022/11/19 08:02:04;;;;;;;;;54.75;43.50;;;;;15.38;56.72;98875.09;4874542;29;8863;-76
2022/11/19 08:04:34;;;;;;;;;49.75;42.75;;;;;15.48;57.64;98880.91;4874268;29;8881;-77
2022/11/19 08:07:03;;;;;;;;;55.00;45.50;;;;;15.56;57.99;98885.03;4894933;29;8856;-77
2022/11/19 08:09:32;;;;;;;;;48.75;39.75;;;;;15.57;57.79;98889.34;4892304;29;8898;-78
2022/11/19 08:12:00;;;;;;;;;36.25;34.50;;;;;15.56;56.58;98895.53;4889866;29;8879;-76
2022/11/19 08:14:29;;;;;;;;;42.00;38.25;;;;;15.62;57.73;98894.50;4889728;29;8963;-78
2022/11/19 08:19:45;;;;;;;;;45.00;37.75;;;;;15.77;57.56;98899.28;4863517;29;8923;-76
2022/11/19 08:22:14;;;;;;;;;46.75;40.00;;;;;15.69;57.39;98893.38;4856019;29;8879;-77
2022/11/19 08:24:44;;;;;;;;;38.75;35.50;;;;;15.75;58.15;98897.63;4854315;29;8921;-78
2022/11/19 08:27:12;;;;;;;;;46.75;39.25;;;;;15.78;56.95;98902.75;4853463;29;8866;-80
2022/11/19 08:29:41;;;;;;;;;39.50;36.00;;;;;15.72;56.04;98903.78;4859550;29;8891;-78
2022/11/19 08:32:10;;;;;;;;;46.50;38.25;;;;;15.83;56.72;98905.25;4854623;29;8910;-78
2022/11/19 08:34:38;;;;;;;;;51.75;41.50;;;;;15.87;57.13;98899.00;4855022;29;8863;-78
2022/11/19 08:37:10;;;;;;;;;51.25;41.50;;;;;15.95;55.81;98900.47;4910428;29;8911;-77
2022/11/19 08:39:38;;;;;;;;;52.75;44.25;;;;;16.03;57.06;98912.47;4880066;29;8907;-77
2022/11/19 08:44:54;;;;;;;;;56.25;44.50;;;;;16.08;56.11;98914.03;4886496;29;8903;-78
2022/11/19 08:47:23;;;;;;;;;55.75;43.25;;;;;16.01;55.11;98904.66;4888931;29;8872;-75
2022/11/19 08:49:52;;;;;;;;;55.00;46.00;;;;;16.07;55.33;98912.34;4870382;29;8890;-76
2022/11/19 08:52:22;;;;;;;;;52.25;42.25;;;;;15.98;54.14;98915.28;4899489;29;8873;-78
2022/11/19 08:54:50;;;;;;;;;52.75;41.25;;;;;16.04;54.96;98920.31;4909937;29;9027;-78
2022/11/19 08:57:19;;;;;;;;;50.75;42.00;;;;;15.98;54.75;98920.53;4879725;29;8962;-78
2022/11/19 08:59:48;;;;;;;;;46.25;40.00;;;;;15.91;53.96;98927.75;4877968;29;8996;-78
2022/11/19 09:02:17;;;;;;;;;52.25;43.00;;;;;15.93;54.73;98918.03;4890980;29;8967;-77
2022/11/19 09:04:45;;;;;;;;;50.00;42.00;;;;;15.96;54.83;98928.47;4890606;29;8895;-76
2022/11/19 09:07:14;;;;;;;;;56.00;46.00;;;;;16.08;55.33;98923.72;4905836;29;8853;-76
2022/11/19 09:09:44;;;;;;;;;54.75;43.25;;;;;16.11;54.77;98927.09;4853749;29;8990;-77
2022/11/19 09:12:13;;;;;;;;;41.50;34.50;;;;;16.03;54.39;98923.88;4855627;29;8913;-77
2022/11/19 09:14:41;;;;;;;;;41.25;38.00;;;;;16.02;54.33;98929.19;4853199;29;8887;-76
2022/11/19 09:17:10;;;;;;;;;43.25;38.25;;;;;16.14;55.32;98928.75;4855129;29;8863;-71
2022/11/19 09:19:38;;;;;;;;;33.75;32.50;;;;;16.15;54.72;98912.09;4854451;29;8925;-73
2022/11/19 09:22:07;;;;;;;;;31.60;30.80;;;;;16.08;54.87;98915.81;4863817;29;8983;-70
2022/11/19 09:24:36;;;;;;;;;36.80;33.40;;;;;16.06;53.93;98907.13;4867889;29;8894;-71
2022/11/19 09:27:06;;;;;;;;;31.80;30.40;;;;;16.16;54.84;98914.69;4858461;29;9004;-77
2022/11/19 09:29:34;;;;;;;;;27.00;23.80;;;;;16.13;54.28;98912.13;4855277;29;8958;-77
2022/11/19 09:32:03;;;;;;;;;25.80;24.40;;;;;16.28;54.56;98912.53;4854814;29;9010;-77
2022/11/19 09:34:33;;;;;;;;;31.20;29.40;;;;;16.20;54.13;98923.31;4871779;29;8939;-77
2022/11/19 09:37:02;;;;;;;;;31.60;31.60;;;;;16.08;54.31;98921.09;4873798;29;8976;-77
2022/11/19 09:39:31;;;;;;;;;42.00;33.20;;;;;15.95;54.46;98912.72;4850412;29;8899;-77
2022/11/19 09:42:14;;;;;;;;;34.00;31.20;;;;;15.94;54.17;98911.88;4854460;29;9011;-79
2022/11/19 09:45:09;;;;;;;;;39.60;36.00;;;;;16.20;54.37;98917.19;4871754;29;10012;-79
2022/11/19 09:47:58;;;;;;;;;32.60;31.80;;;;;16.13;54.35;98908.66;4823354;29;8885;-76
2022/11/19 09:50:31;;;;;;;;;39.60;33.40;;;;;16.06;53.91;98912.38;4837717;29;9037;-76
2022/11/19 09:53:07;;;;;;;;;34.60;32.80;;;;;15.98;55.16;98913.50;4836436;29;8878;-77
2022/11/19 09:55:38;;;;;;;;;32.20;31.20;;;;;16.01;54.46;98911.66;4824761;29;9015;-77
2022/11/19 09:58:14;;;;;;;;;37.80;34.20;;;;;16.15;54.42;98907.69;4837109;29;8898;-81
2022/11/19 10:00:44;;;;;;;;;35.00;32.00;;;;;16.20;54.75;98906.66;4809130;29;8962;-78
2022/11/19 10:03:16;;;;;;;;;32.20;31.20;;;;;16.27;54.88;98905.53;4837557;29;8893;-76
2022/11/19 10:06:07;;;;;;;;;39.40;33.00;;;;;16.27;54.88;98908.19;4806989;29;9056;-75
2022/11/19 10:08:54;;;;;;;;;37.60;33.60;;;;;16.41;54.28;98913.84;4837526;29;8957;-77
2022/11/19 10:11:35;;;;;;;;;39.00;35.20;;;;;16.46;55.03;98917.16;4821939;29;8906;-76
2022/11/19 10:14:17;;;;;;;;;42.80;37.00;;;;;16.44;54.76;98912.88;4836922;29;8922;-76
2022/11/19 10:17:00;;;;;;;;;41.60;36.80;;;;;16.53;55.13;98908.13;4838560;29;9785;-80
2022/11/19 10:19:42;;;;;;;;;41.75;35.00;;;;;16.51;54.97;98904.69;4824496;29;8899;-77
2022/11/19 10:22:20;;;;;;;;;44.00;38.25;;;;;16.53;54.67;98902.88;4824202;29;9713;-78
2022/11/19 10:24:57;;;;;;;;;49.00;41.50;;;;;16.58;54.92;98902.72;4850140;29;8858;-83
2022/11/19 10:27:31;;;;;;;;;49.00;40.00;;;;;16.30;55.07;98889.66;4862660;29;8999;-77
2022/11/19 10:30:07;;;;;;;;;47.00;39.75;;;;;16.40;55.25;98887.56;4901390;29;8906;-79
2022/11/19 10:32:40;;;;;;;;;51.00;41.75;;;;;16.37;55.31;98881.50;4874788;29;8927;-80
2022/11/19 10:35:18;;;;;;;;;49.75;41.25;;;;;16.25;55.02;98879.28;4875102;29;8865;-78
2022/11/19 10:37:55;;;;;;;;;55.00;45.25;;;;;16.16;55.31;98869.06;4876026;29;8869;-75
2022/11/19 10:40:28;;;;;;;;;49.25;40.75;;;;;16.07;55.58;98875.53;4876454;29;8850;-77
2022/11/19 10:43:14;;;;;;;;;52.00;39.25;;;;;16.08;56.23;98865.84;4857087;29;8900;-81
2022/11/19 10:45:49;;;;;;;;;55.50;42.25;;;;;16.05;55.67;98863.31;4842101;29;8890;-77
2022/11/19 10:48:22;;;;;;;;;45.50;38.50;;;;;16.05;55.81;98868.56;4870827;29;8867;-78
2022/11/19 10:50:51;;;;;;;;;51.50;42.50;;;;;16.10;55.22;98887.69;4858071;29;8895;-78
2022/11/19 10:53:25;;;;;;;;;46.00;39.50;;;;;16.14;55.33;98879.69;4841107;29;8906;-79
2022/11/19 10:55:57;;;;;;;;;49.00;37.75;;;;;16.13;55.69;98898.97;4857273;29;8903;-78
2022/11/19 10:58:29;;;;;;;;;52.25;39.50;;;;;16.20;55.74;98906.66;4857270;29;8867;-79
2022/11/19 11:01:02;;;;;;;;;40.75;35.75;;;;;16.31;55.30;98905.41;4859053;29;9842;-80
2022/11/19 11:03:38;;;;;;;;;40.80;36.00;;;;;16.30;55.12;98892.28;4855153;29;8961;-80
2022/11/19 11:06:08;;;;;;;;;32.40;30.20;;;;;16.26;55.10;98898.59;4823589;29;8876;-78
2022/11/19 11:08:48;;;;;;;;;42.80;36.40;;;;;16.50;54.84;98902.13;4824428;29;8931;-78
2022/11/19 11:14:50;;;;;;;;;37.60;33.40;;;;;16.50;54.54;98907.38;4857031;29;8889;-78
2022/11/19 11:17:19;;;;;;;;;43.40;35.20;;;;;16.74;53.53;98910.91;4819373;29;8886;-78
2022/11/19 11:19:57;;;;;;;;;43.40;37.40;;;;;16.89;54.14;98905.13;4819694;29;8890;-78
2022/11/19 11:22:27;;;;;;;;;44.00;36.25;;;;;16.74;53.81;98901.25;4820572;29;8931;-79
2022/11/19 11:24:56;;;;;;;;;37.80;33.00;;;;;16.76;53.41;98899.41;4832948;29;8973;-80
2022/11/19 11:27:32;;;;;;;;;29.20;27.20;;;;;16.72;54.26;98905.69;4827278;29;8990;-79
2022/11/19 11:30:15;;;;;;;;;33.00;30.40;;;;;16.74;54.09;98898.59;4822855;29;9028;-79
2022/11/19 11:32:46;;;;;;;;;34.80;32.40;;;;;16.67;54.17;98893.63;4804871;29;8971;-77
2022/11/19 11:35:29;;;;;;;;;33.80;32.40;;;;;16.79;54.10;98902.88;4823516;29;8985;-79
2022/11/19 11:38:00;;;;;;;;;31.80;31.80;;;;;16.67;53.81;98897.13;4821041;29;8910;-78
2022/11/19 11:40:30;;;;;;;;;33.60;32.40;;;;;16.73;54.14;98904.81;4819708;29;9010;-77
2022/11/19 11:42:59;;;;;;;;;39.00;33.20;;;;;16.76;53.52;98904.66;4837446;29;8867;-78
2022/11/19 11:45:31;;;;;;;;;38.40;33.80;;;;;16.78;53.14;98899.34;4847750;29;8866;-78
2022/11/19 11:48:08;;;;;;;;;40.20;33.20;;;;;16.81;54.09;98903.69;4846855;29;8861;-79
2022/11/19 11:50:37;;;;;;;;;33.80;33.00;;;;;16.79;53.21;98902.88;4841204;29;8977;-78
2022/11/19 11:53:09;;;;;;;;;33.60;33.00;;;;;16.81;53.34;98898.41;4850037;29;8878;-78
2022/11/19 11:55:38;;;;;;;;;33.60;31.20;;;;;16.61;53.09;98901.75;4866083;29;9038;-77
2022/11/19 11:58:25;;;;;;;;;43.00;35.60;;;;;16.63;54.03;98899.91;4850157;29;8879;-78
2022/11/19 12:00:56;;;;;;;;;37.40;33.60;;;;;16.59;54.16;98900.94;4866923;29;8886;-77
2022/11/19 12:03:27;;;;;;;;;33.20;30.80;;;;;16.56;53.93;98894.03;4867020;29;8894;-79
2022/11/19 12:06:07;;;;;;;;;32.20;30.80;;;;;16.64;54.68;98896.38;4851650;29;8875;-77
2022/11/19 12:08:48;;;;;;;;;27.80;26.60;;;;;16.75;54.28;98900.34;4876140;29;9672;-79
2022/11/19 12:11:23;;;;;;;;;35.20;32.60;;;;;16.65;53.70;98895.44;4841701;29;8893;-81
2022/11/19 12:14:03;;;;;;;;;31.80;31.20;;;;;16.63;54.26;98886.75;4812126;29;8915;-77